Time;durP1;ratioP1;P1;durP2;ratioP2;P2;SDS_P1;SDS_P2;PMS_P1;PMS_P2;Temp;Humidity;BMP_temperature;BMP_pressure;BME280_temperature;BME280_humidity;BME280_pressure;Samples;Min_cycle;Max_cycle;Signal;HPM_P1;HPM_P2
2023/02/17 00:00:49;;;;;;;11.80;8.63;;;;;;;10.63;52.18;98657.56;8411073;28;20240;-68
2023/02/17 00:04:52;;;;;;;8.60;7.43;;;;;;;10.76;51.26;98657.09;8411048;28;20231;-68
2023/02/17 00:08:58;;;;;;;10.60;8.60;;;;;;;10.63;51.62;98635.09;8410955;28;20251;-67
2023/02/17 00:13:01;;;;;;;14.40;10.20;;;;;;;10.84;51.21;98646.47;8411220;28;24253;-68
2023/02/17 00:17:03;;;;;;;9.80;7.87;;;;;;;10.88;51.17;98655.00;8410897;28;20494;-68
2023/02/17 00:21:17;;;;;;;8.20;6.20;;;;;;;10.90;50.60;98633.31;8410834;28;20249;-66
2023/02/17 00:25:21;;;;;;;8.63;6.47;;;;;;;10.90;50.71;98630.72;8410672;28;20226;-68
2023/02/17 00:29:24;;;;;;;8.27;7.10;;;;;;;10.81;51.01;98635.38;8410433;28;20230;-68
2023/02/17 00:33:27;;;;;;;9.43;6.57;;;;;;;10.94;51.14;98640.06;8410671;28;20528;-67
2023/02/17 00:37:30;;;;;;;11.97;7.67;;;;;;;10.73;51.07;98628.69;8410563;28;20240;-67
2023/02/17 00:41:34;;;;;;;11.03;7.77;;;;;;;10.93;51.09;98642.72;8410208;28;20224;-68
2023/02/17 00:45:37;;;;;;;11.43;7.90;;;;;;;10.80;51.37;98641.47;8410838;28;20415;-67
2023/02/17 00:49:39;;;;;;;10.00;7.20;;;;;;;10.90;51.07;98648.00;8416405;28;20220;-67
2023/02/17 00:53:42;;;;;;;11.70;7.37;;;;;;;10.82;51.39;98643.09;8449255;28;20220;-67
2023/02/17 00:57:47;;;;;;;9.20;6.70;;;;;;;10.96;50.95;98637.41;8449565;28;20224;-67
2023/02/17 01:01:49;;;;;;;8.80;7.23;;;;;;;10.91;50.76;98647.13;8449020;28;20239;-67
2023/02/17 01:05:53;;;;;;;12.03;7.27;;;;;;;10.89;50.57;98631.63;8449046;28;20255;-67
2023/02/17 01:09:56;;;;;;;10.30;6.90;;;;;;;11.01;50.24;98645.06;8449065;28;20231;-67
2023/02/17 01:14:05;;;;;;;7.73;6.77;;;;;;;10.97;50.40;98646.91;8448838;28;20241;-67
2023/02/17 01:18:07;;;;;;;8.90;6.73;;;;;;;10.92;50.55;98630.66;8448977;28;20234;-67
2023/02/17 01:22:10;;;;;;;7.37;6.10;;;;;;;10.82;50.63;98624.97;8448793;28;20230;-67
2023/02/17 01:26:14;;;;;;;9.47;6.37;;;;;;;10.94;50.47;98628.84;8448801;28;20232;-68
2023/02/17 01:30:18;;;;;;;8.33;5.97;;;;;;;11.04;50.27;98629.38;8448618;28;20227;-67
2023/02/17 01:34:21;;;;;;;8.50;5.97;;;;;;;11.10;50.11;98622.25;8448461;28;20223;-67
2023/02/17 01:38:24;;;;;;;9.60;6.07;;;;;;;11.15;49.90;98624.66;8448283;28;20231;-67
2023/02/17 01:42:27;;;;;;;6.63;5.37;;;;;;;11.18;49.81;98611.59;8447949;28;20234;-67
2023/02/17 01:46:33;;;;;;;7.20;5.53;;;;;;;11.12;49.83;98611.81;8448102;28;20253;-67
2023/02/17 01:50:39;;;;;;;7.90;5.30;;;;;;;11.14;49.92;98603.06;8448021;28;20326;-67
2023/02/17 01:54:45;;;;;;;7.53;5.40;;;;;;;11.16;49.60;98603.03;8413934;28;20220;-67
2023/02/17 01:58:51;;;;;;;5.83;5.10;;;;;;;11.19;49.66;98600.31;8413071;28;20236;-67
2023/02/17 02:02:55;;;;;;;6.60;4.90;;;;;;;11.15;49.86;98573.66;8413960;28;20237;-67
2023/02/17 02:06:59;;;;;;;5.60;4.87;;;;;;;11.14;51.32;98589.28;8413949;28;20231;-67
2023/02/17 02:11:02;;;;;;;6.57;4.50;;;;;;;11.26;52.02;98570.66;8413825;28;20236;-67
2023/02/17 02:15:07;;;;;;;5.20;4.27;;;;;;;11.17;52.01;98544.25;8413645;28;20232;-67
2023/02/17 02:19:38;;;;;;;4.73;4.07;;;;;;;11.29;52.40;98573.16;8413274;28;20552;-67
2023/02/17 02:24:02;;;;;;;10.30;5.33;;;;;;;11.17;55.60;98560.63;8444508;28;20224;-67
2023/02/17 02:28:11;;;;;;;4.97;4.50;;;;;;;11.15;54.13;98560.69;8446432;28;20379;-67
2023/02/17 02:32:30;;;;;;;9.03;4.70;;;;;;;11.30;54.33;98555.84;8446392;28;20588;-67
2023/02/17 02:36:34;;;;;;;6.07;4.57;;;;;;;11.23;54.66;98541.41;8446380;28;20660;-67
2023/02/17 02:40:41;;;;;;;6.03;4.53;;;;;;;11.33;54.28;98548.78;8446141;28;20227;-68
2023/02/17 02:44:43;;;;;;;7.07;5.07;;;;;;;11.29;54.58;98548.94;8411875;28;20290;-67
2023/02/17 02:48:51;;;;;;;5.27;4.20;;;;;;;11.31;54.77;98550.59;8412154;28;20240;-67
2023/02/17 02:53:03;;;;;;;5.93;4.57;;;;;;;11.29;54.86;98561.91;8412278;28;20551;-67
2023/02/17 02:57:17;;;;;;;5.17;4.57;;;;;;;11.24;55.77;98556.06;8412027;28;20228;-67
2023/02/17 03:01:27;;;;;;;5.80;4.70;;;;;;;11.25;56.74;98545.66;8411916;28;20239;-67
2023/02/17 03:05:38;;;;;;;9.33;4.97;;;;;;;11.11;56.32;98529.75;8412061;28;20232;-67
2023/02/17 03:09:41;;;;;;;6.53;4.73;;;;;;;11.15;57.82;98539.94;8411561;28;20221;-68
2023/02/17 03:13:44;;;;;;;8.33;4.90;;;;;;;11.11;57.68;98533.19;8411622;28;20224;-68
2023/02/17 03:17:47;;;;;;;6.70;5.00;;;;;;;11.18;57.40;98536.41;8411875;28;20266;-67
2023/02/17 03:21:53;;;;;;;6.50;5.20;;;;;;;11.14;57.06;98535.69;8411591;28;20243;-67
2023/02/17 03:25:57;;;;;;;6.10;5.50;;;;;;;10.94;58.23;98523.44;8411621;28;20235;-67
2023/02/17 03:30:00;;;;;;;7.33;5.43;;;;;;;11.06;57.56;98534.25;8411473;28;20404;-67
2023/02/17 03:34:03;;;;;;;9.00;6.07;;;;;;;11.04;57.85;98536.94;8411331;28;20287;-69
2023/02/17 03:38:07;;;;;;;7.03;5.27;;;;;;;11.01;58.59;98533.59;8411132;28;20224;-68
2023/02/17 03:42:10;;;;;;;5.90;4.97;;;;;;;10.99;58.82;98546.63;8411208;28;20235;-68
2023/02/17 03:46:13;;;;;;;8.43;5.40;;;;;;;10.91;58.59;98541.72;8411214;28;20542;-69
2023/02/17 03:50:16;;;;;;;7.37;6.03;;;;;;;10.99;57.92;98525.88;8411232;28;20235;-68
2023/02/17 03:54:21;;;;;;;7.07;5.90;;;;;;;10.85;58.71;98521.22;8410950;28;20239;-68
2023/02/17 03:58:23;;;;;;;8.40;5.73;;;;;;;10.82;58.27;98525.66;8411154;28;20229;-68
2023/02/17 04:02:26;;;;;;;6.53;5.90;;;;;;;10.53;59.13;98522.38;8410641;28;20235;-68
2023/02/17 04:06:29;;;;;;;9.60;6.33;;;;;;;10.69;58.63;98533.03;8411002;28;20235;-68
2023/02/17 04:10:33;;;;;;;6.57;5.70;;;;;;;10.79;58.82;98530.94;8410796;28;20224;-68
2023/02/17 04:14:38;;;;;;;6.30;5.70;;;;;;;10.84;57.99;98529.03;8410879;28;20248;-68
2023/02/17 04:18:41;;;;;;;7.33;6.20;;;;;;;10.68;58.64;98532.19;8410778;28;20232;-68
2023/02/17 04:22:45;;;;;;;7.00;5.20;;;;;;;10.22;59.75;98522.53;8413915;28;20530;-69
2023/02/17 04:26:49;;;;;;;6.43;5.00;;;;;;;10.54;59.16;98529.22;8417098;28;20237;-68
2023/02/17 04:30:53;;;;;;;6.37;3.90;;;;;;;10.74;58.73;98537.13;8417051;28;20231;-68
2023/02/17 04:34:56;;;;;;;6.33;4.30;;;;;;;10.83;58.94;98529.94;8416940;28;20258;-68
2023/02/17 04:38:58;;;;;;;4.93;4.03;;;;;;;10.96;58.60;98513.88;8416730;28;20543;-68
2023/02/17 04:43:03;;;;;;;7.50;3.87;;;;;;;10.97;58.96;98504.38;8416573;28;20240;-68
2023/02/17 04:47:05;;;;;;;7.23;4.03;;;;;;;11.06;58.61;98493.66;8416413;28;20524;-68
2023/02/17 04:51:08;;;;;;;5.90;4.00;;;;;;;11.12;58.14;98496.00;8416453;28;20276;-68
2023/02/17 04:55:11;;;;;;;5.20;3.63;;;;;;;11.12;58.21;98498.59;8416158;28;20231;-68
2023/02/17 04:59:15;;;;;;;6.13;3.70;;;;;;;11.30;57.34;98502.22;8415972;28;20232;-68
2023/02/17 05:03:19;;;;;;;5.97;4.07;;;;;;;11.25;56.65;98490.34;8415841;28;20235;-68
2023/02/17 05:07:22;;;;;;;5.50;3.23;;;;;;;11.36;56.63;98498.56;8415691;28;20535;-68
2023/02/17 05:11:25;;;;;;;4.50;3.50;;;;;;;11.36;56.15;98490.78;8415755;28;20232;-68
2023/02/17 05:15:30;;;;;;;4.07;3.37;;;;;;;11.36;55.71;98501.16;8415696;28;20235;-68
2023/02/17 05:19:36;;;;;;;4.30;3.50;;;;;;;11.20;55.38;98445.63;8415499;28;20281;-68
2023/02/17 05:23:40;;;;;;;4.73;3.67;;;;;;;11.49;55.34;98494.56;8415345;28;20559;-68
2023/02/17 05:27:42;;;;;;;6.47;3.30;;;;;;;11.51;55.18;98491.91;8414752;28;20289;-68
2023/02/17 05:31:46;;;;;;;3.90;3.20;;;;;;;11.58;54.97;98492.53;8415071;28;20274;-69
2023/02/17 05:35:50;;;;;;;4.13;3.30;;;;;;;11.55;55.63;98490.88;8414820;28;20228;-68
2023/02/17 05:39:53;;;;;;;4.60;3.13;;;;;;;11.54;55.50;98492.66;8414718;28;20232;-68
2023/02/17 05:43:55;;;;;;;3.27;2.97;;;;;;;11.47;55.93;98485.16;8414866;28;20232;-69
2023/02/17 05:48:05;;;;;;;4.23;3.17;;;;;;;11.58;55.71;98483.00;8414739;28;23359;-68
2023/02/17 05:52:08;;;;;;;5.10;3.50;;;;;;;11.56;56.30;98484.81;8414607;28;20236;-68
2023/02/17 05:56:14;;;;;;;4.77;3.40;;;;;;;11.53;57.03;98480.56;8414421;28;20528;-69
2023/02/17 06:00:18;;;;;;;4.77;3.23;;;;;;;11.47;57.64;98482.56;8413687;28;20244;-67
2023/02/17 06:04:22;;;;;;;3.83;3.10;;;;;;;11.49;57.92;98493.72;8414208;28;20228;-68
2023/02/17 06:08:25;;;;;;;6.47;3.17;;;;;;;11.57;58.20;98503.81;8413746;28;20416;-68
2023/02/17 06:12:28;;;;;;;4.40;2.87;;;;;;;11.59;58.81;98502.81;8413878;28;20523;-68
2023/02/17 06:16:31;;;;;;;5.63;3.23;;;;;;;11.56;59.15;98513.34;8413579;28;20509;-68
2023/02/17 06:20:35;;;;;;;4.13;3.50;;;;;;;11.20;60.47;98490.53;8413724;28;20229;-68
2023/02/17 06:24:37;;;;;;;6.63;3.23;;;;;;;11.48;59.66;98505.88;8413726;28;20228;-67
2023/02/17 06:28:40;;;;;;;4.93;3.40;;;;;;;11.42;60.37;98498.31;8413253;28;20244;-68
2023/02/17 06:32:43;;;;;;;3.03;2.80;;;;;;;11.40;60.52;98499.28;8412482;28;20224;-68
2023/02/17 06:36:50;;;;;;;4.50;2.93;;;;;;;11.53;59.84;98467.59;8412541;28;20274;-68
2023/02/17 06:40:53;;;;;;;5.00;3.20;;;;;;;11.56;59.41;98492.59;8412671;28;20236;-68
2023/02/17 06:44:56;;;;;;;4.70;3.10;;;;;;;11.65;59.31;98494.81;8412440;28;20236;-69
2023/02/17 06:49:00;;;;;;;4.20;3.00;;;;;;;11.60;59.58;98501.94;8412542;28;20258;-68
2023/02/17 06:53:08;;;;;;;3.80;2.70;;;;;;;11.33;60.26;98481.38;8412914;28;20228;-68
2023/02/17 06:57:11;;;;;;;3.17;2.57;;;;;;;11.74;59.63;98501.38;8412176;28;20224;-68
2023/02/17 07:01:16;;;;;;;2.63;2.33;;;;;;;11.64;59.84;98503.50;8411778;28;20232;-68
2023/02/17 07:05:19;;;;;;;4.40;2.50;;;;;;;11.79;59.85;98501.19;8411821;28;20228;-68
2023/02/17 07:09:23;;;;;;;2.10;2.00;;;;;;;11.62;60.64;98497.53;8411637;28;20287;-69
2023/02/17 07:13:26;;;;;;;2.73;2.43;;;;;;;11.67;60.68;98507.72;8411997;28;20243;-68
2023/02/17 07:17:29;;;;;;;2.63;2.43;;;;;;;11.65;60.93;98492.22;8412005;28;20279;-68
2023/02/17 07:21:32;;;;;;;3.07;2.27;;;;;;;11.77;60.48;98490.03;8411740;28;20239;-68
2023/02/17 07:25:36;;;;;;;2.20;2.00;;;;;;;11.71;61.03;98488.53;8411382;28;20270;-68
2023/02/17 07:29:39;;;;;;;3.67;2.30;;;;;;;11.65;61.43;98492.22;8411241;28;20398;-68
2023/02/17 07:33:42;;;;;;;2.73;2.30;;;;;;;11.54;62.42;98497.00;8410731;28;20231;-68
2023/02/17 07:37:45;;;;;;;2.80;2.27;;;;;;;11.81;61.40;98505.41;8410960;28;20251;-68
2023/02/17 07:41:50;;;;;;;2.63;2.17;;;;;;;11.69;62.03;98516.28;8410732;28;20408;-68
2023/02/17 07:45:54;;;;;;;3.47;2.40;;;;;;;11.24;63.01;98479.13;8410585;28;20232;-68
2023/02/17 07:50:00;;;;;;;2.57;2.37;;;;;;;11.54;63.23;98522.94;8410514;28;20291;-68
2023/02/17 07:54:03;;;;;;;2.93;2.60;;;;;;;11.44;64.10;98524.19;8410513;28;20416;-69
2023/02/17 07:58:10;;;;;;;2.87;2.37;;;;;;;11.46;64.14;98523.25;8414982;28;20273;-68
2023/02/17 08:02:13;;;;;;;3.03;2.33;;;;;;;11.61;63.36;98521.75;8416934;28;20232;-68
2023/02/17 08:06:17;;;;;;;3.23;2.93;;;;;;;11.61;63.51;98541.69;8417096;28;20528;-67
2023/02/17 08:14:44;;;;;;;2.53;2.30;;;;;;;11.52;63.80;98524.75;8416377;28;20393;-68
2023/02/17 08:18:47;;;;;;;3.00;2.57;;;;;;;11.62;63.62;98539.03;8416873;28;20238;-68
2023/02/17 08:22:50;;;;;;;3.17;2.17;;;;;;;11.66;63.71;98534.56;8416219;28;20251;-68
2023/02/17 08:26:53;;;;;;;3.37;2.50;;;;;;;11.55;63.87;98535.81;8416238;28;20558;-68
2023/02/17 08:30:57;;;;;;;3.67;2.57;;;;;;;11.71;63.29;98543.88;8416414;28;20544;-68
2023/02/17 08:35:00;;;;;;;3.80;2.33;;;;;;;11.74;63.05;98543.72;8416198;28;20408;-68
2023/02/17 08:39:04;;;;;;;2.23;2.03;;;;;;;11.70;63.62;98549.94;8415697;28;20236;-68
2023/02/17 08:43:07;;;;;;;3.90;2.80;;;;;;;12.05;69.54;98495.81;8415884;28;20528;-70
2023/02/17 08:47:12;;;;;;;3.10;2.50;;;;;;;13.64;68.35;98567.63;8416547;28;20228;-70
2023/02/17 08:51:16;;;;;;;2.53;2.33;;;;;;;13.24;61.51;98553.81;8416413;28;20228;-69
2023/02/17 08:55:21;;;;;;;2.33;2.13;;;;;;;12.62;61.72;98560.94;8416040;28;20234;-67
2023/02/17 08:59:24;;;;;;;2.63;2.13;;;;;;;12.32;62.29;98563.91;8416433;28;20228;-67
2023/02/17 09:03:29;;;;;;;3.23;2.30;;;;;;;12.05;63.36;98557.25;8415999;28;20520;-67
2023/02/17 09:07:31;;;;;;;2.70;2.43;;;;;;;12.25;62.95;98541.69;8415586;28;20258;-68
2023/02/17 09:11:34;;;;;;;3.20;2.23;;;;;;;12.15;63.63;98545.59;8415667;28;20287;-67
2023/02/17 09:15:37;;;;;;;2.87;2.20;;;;;;;12.25;63.18;98557.28;8415818;28;20236;-67
2023/02/17 09:19:41;;;;;;;2.90;2.60;;;;;;;12.32;63.28;98560.47;8415738;28;20333;-67
2023/02/17 09:23:44;;;;;;;2.77;2.50;;;;;;;11.99;64.33;98554.91;8415079;28;20524;-67
2023/02/17 09:27:47;;;;;;;2.90;2.33;;;;;;;11.88;64.97;98550.09;8415386;28;20232;-67
2023/02/17 09:31:50;;;;;;;2.50;2.30;;;;;;;11.68;65.59;98546.56;8415259;28;20237;-68
2023/02/17 09:35:54;;;;;;;2.53;2.33;;;;;;;11.67;66.04;98542.31;8415131;28;20233;-68
2023/02/17 09:39:58;;;;;;;4.40;2.60;;;;;;;11.68;65.84;98536.19;8414848;28;20232;-68
2023/02/17 09:44:05;;;;;;;3.33;2.47;;;;;;;11.96;65.05;98536.88;8415029;28;27308;-68
2023/02/17 09:48:10;;;;;;;2.87;2.67;;;;;;;11.80;66.03;98544.38;8414830;28;20228;-68
2023/02/17 09:52:18;;;;;;;2.60;2.40;;;;;;;11.81;65.96;98539.16;8414575;28;20494;-68
2023/02/17 09:56:25;;;;;;;2.83;2.63;;;;;;;11.63;66.18;98530.34;8414494;28;20435;-68
2023/02/17 10:00:30;;;;;;;2.60;2.40;;;;;;;11.67;67.04;98544.91;8414425;28;20544;-68
2023/02/17 10:04:36;;;;;;;3.93;2.63;;;;;;;11.96;65.79;98539.47;8414004;28;20532;-69
2023/02/17 10:08:44;;;;;;;3.97;2.50;;;;;;;11.83;66.16;98526.94;8413707;28;20274;-68
2023/02/17 10:12:50;;;;;;;2.80;2.40;;;;;;;12.04;65.70;98534.81;8446752;28;20238;-68
2023/02/17 10:16:57;;;;;;;2.97;2.30;;;;;;;12.21;65.07;98527.16;8447212;28;20237;-68
2023/02/17 10:21:03;;;;;;;2.20;2.10;;;;;;;12.08;65.39;98518.19;8445998;28;20243;-68
2023/02/17 10:25:15;;;;;;;2.53;2.27;;;;;;;12.14;64.97;98536.09;8446776;28;20239;-68
2023/02/17 10:29:30;;;;;;;2.00;1.90;;;;;;;12.11;65.31;98529.28;8446973;28;20231;-68
2023/02/17 10:33:36;;;;;;;2.17;1.97;;;;;;;12.08;64.81;98510.41;8446705;28;20228;-68
2023/02/17 10:37:46;;;;;;;2.73;1.87;;;;;;;12.16;65.05;98531.69;8446708;28;20227;-69
2023/02/17 10:41:51;;;;;;;2.80;2.00;;;;;;;12.30;64.54;98541.53;8412484;28;20655;-68
2023/02/17 10:45:54;;;;;;;2.10;1.90;;;;;;;12.09;65.28;98544.09;8412637;28;20228;-68
2023/02/17 10:50:00;;;;;;;2.33;1.77;;;;;;;12.44;64.41;98520.97;8412713;28;20232;-68
2023/02/17 10:54:08;;;;;;;1.83;1.70;;;;;;;12.51;64.23;98531.97;8412351;28;20236;-68
2023/02/17 10:58:15;;;;;;;2.07;1.70;;;;;;;12.21;64.36;98492.56;8412286;28;20225;-68
2023/02/17 11:02:20;;;;;;;2.87;2.50;;;;;;;12.34;64.72;98511.91;8412027;28;20232;-68
2023/02/17 11:06:24;;;;;;;3.73;2.27;;;;;;;12.51;64.12;98503.38;8412047;28;20235;-68
2023/02/17 11:10:32;;;;;;;1.80;1.60;;;;;;;12.42;63.87;98451.84;8411795;28;20229;-69
2023/02/17 11:14:43;;;;;;;3.00;2.70;;;;;;;12.58;63.54;98484.00;8411645;28;20527;-67
2023/02/17 11:18:48;;;;;;;2.23;2.03;;;;;;;12.34;64.08;98465.16;8410411;28;20239;-68
2023/02/17 11:23:01;;;;;;;3.67;2.50;;;;;;;12.50;64.05;98492.13;8411238;28;20231;-69
2023/02/17 11:27:10;;;;;;;1.70;1.60;;;;;;;12.36;64.70;98491.06;8410919;28;20224;-68
2023/02/17 11:31:23;;;;;;;5.10;2.00;;;;;;;12.23;65.91;98495.94;8411081;28;20221;-69
2023/02/17 11:35:45;;;;;;;2.03;1.83;;;;;;;12.30;67.46;98499.97;8411035;28;20313;-68
2023/02/17 11:39:49;;;;;;;2.30;2.10;;;;;;;12.39;67.16;98485.72;8410553;28;20225;-68
2023/02/17 11:43:53;;;;;;;2.40;2.20;;;;;;;12.34;67.21;98480.75;8410843;28;20240;-69
2023/02/17 11:48:12;;;;;;;2.47;2.27;;;;;;;12.36;66.75;98475.50;8410830;28;20236;-68
2023/02/17 11:52:21;;;;;;;2.37;1.80;;;;;;;12.36;66.71;98465.94;8410724;28;20251;-68
2023/02/17 11:56:30;;;;;;;1.70;1.60;;;;;;;12.38;67.46;98491.84;8410804;28;20224;-67
2023/02/17 12:00:41;;;;;;;2.07;1.63;;;;;;;12.37;67.29;98466.75;8409538;28;20240;-67
2023/02/17 12:04:54;;;;;;;1.73;1.43;;;;;;;12.34;67.22;98478.16;8409708;28;20224;-68
2023/02/17 12:09:13;;;;;;;2.30;1.60;;;;;;;12.39;66.69;98478.75;8409992;28;20232;-68
2023/02/17 12:13:28;;;;;;;1.70;1.60;;;;;;;12.47;66.66;98470.63;8410454;28;20235;-69
2023/02/17 12:17:39;;;;;;;1.50;1.40;;;;;;;12.27;66.93;98461.13;8410485;28;20229;-69
2023/02/17 12:21:54;;;;;;;1.47;1.37;;;;;;;12.32;66.79;98461.78;8409942;28;20326;-68
2023/02/17 12:25:59;;;;;;;1.60;1.40;;;;;;;12.23;67.48;98467.38;8409937;28;20618;-68
2023/02/17 12:30:13;;;;;;;1.50;1.40;;;;;;;12.40;66.50;98493.47;8410082;28;20528;-68
2023/02/17 12:34:21;;;;;;;1.73;1.37;;;;;;;12.52;66.68;98487.72;8410184;28;20231;-69
2023/02/17 12:38:27;;;;;;;1.60;1.50;;;;;;;12.32;67.21;98482.56;8410099;28;20228;-70
2023/02/17 12:42:32;;;;;;;1.53;1.43;;;;;;;12.36;67.27;98470.28;8411877;28;20243;-68
2023/02/17 12:46:40;;;;;;;1.50;1.40;;;;;;;12.26;67.68;98473.28;8416550;28;20228;-69
2023/02/17 12:50:51;;;;;;;2.83;1.50;;;;;;;12.51;66.81;98465.25;8413904;28;20216;-68
2023/02/17 12:54:58;;;;;;;1.50;1.40;;;;;;;12.53;67.01;98465.19;8415694;28;20244;-69
2023/02/17 12:59:11;;;;;;;1.70;1.60;;;;;;;12.32;66.96;98447.03;8415779;28;20232;-71
2023/02/17 13:03:14;;;;;;;1.60;1.50;;;;;;;12.66;66.34;98465.47;8415640;28;20236;-69
2023/02/17 13:07:38;;;;;;;1.93;1.83;;;;;;;12.43;66.45;98472.56;8416094;28;20229;-68
2023/02/17 13:11:45;;;;;;;2.73;2.53;;;;;;;12.61;66.34;98460.50;8422561;28;20231;-68
2023/02/17 13:15:48;;;;;;;2.40;2.30;;;;;;;12.40;67.37;98453.66;8415584;28;20229;-68
2023/02/17 13:20:05;;;;;;;2.40;2.20;;;;;;;12.18;66.85;98409.59;8415788;28;20255;-69
2023/02/17 13:24:14;;;;;;;2.40;2.20;;;;;;;12.71;66.02;98456.56;8411876;28;20279;-68
2023/02/17 13:28:35;;;;;;;2.53;2.20;;;;;;;12.77;65.77;98432.03;8415253;28;20228;-68
2023/02/17 13:32:40;;;;;;;2.90;2.70;;;;;;;12.61;66.54;98431.06;8415046;28;20228;-69
2023/02/17 13:36:43;;;;;;;6.57;5.70;;;;;;;12.86;66.02;98425.59;8447828;28;20215;-68
2023/02/17 13:40:46;;;;;;;7.07;6.23;;;;;;;12.93;65.78;98442.59;8448350;28;20243;-67
2023/02/17 13:44:51;;;;;;;5.83;5.23;;;;;;;12.88;65.61;98437.59;8447153;28;20232;-69
2023/02/17 13:49:04;;;;;;;4.10;3.70;;;;;;;12.58;66.34;98423.41;8446027;28;20239;-68
2023/02/17 13:53:22;;;;;;;3.37;2.90;;;;;;;12.97;65.36;98425.94;8447338;28;20310;-68
2023/02/17 13:57:29;;;;;;;4.40;4.10;;;;;;;12.88;65.84;98423.75;8447587;28;20224;-67
2023/02/17 14:01:37;;;;;;;2.77;2.47;;;;;;;12.99;66.21;98420.66;8446717;28;20267;-68
2023/02/17 14:05:43;;;;;;;2.17;1.73;;;;;;;12.98;65.67;98424.16;8447045;28;20259;-69
2023/02/17 14:09:52;;;;;;;2.17;1.97;;;;;;;12.97;65.84;98420.75;8413407;28;20220;-68
2023/02/17 14:13:57;;;;;;;1.90;1.80;;;;;;;12.98;65.53;98405.97;8413946;28;20543;-67
2023/02/17 14:18:13;;;;;;;1.70;1.60;;;;;;;12.50;65.81;98336.25;8413683;28;20348;-70
2023/02/17 14:22:27;;;;;;;1.90;1.80;;;;;;;12.88;65.26;98376.97;8413385;28;20431;-68
2023/02/17 14:26:40;;;;;;;1.70;1.60;;;;;;;12.66;64.79;98314.75;8413417;28;20234;-68
2023/02/17 14:30:42;;;;;;;1.80;1.70;;;;;;;13.10;65.42;98379.41;8412878;28;20230;-69
2023/02/17 14:34:46;;;;;;;2.50;1.60;;;;;;;13.43;64.42;98389.13;8413048;28;20254;-69
2023/02/17 14:38:55;;;;;;;2.00;1.77;;;;;;;13.64;63.92;98384.59;8412333;28;20268;-67
2023/02/17 14:42:58;;;;;;;1.87;1.60;;;;;;;13.27;64.81;98376.00;8412276;28;20232;-68
2023/02/17 14:47:01;;;;;;;1.50;1.40;;;;;;;13.45;64.15;98376.88;8412708;28;20250;-67
2023/02/17 14:51:12;;;;;;;1.37;1.27;;;;;;;13.60;63.73;98373.50;8412279;28;20584;-68
2023/02/17 14:55:17;;;;;;;1.47;1.37;;;;;;;13.66;63.86;98375.78;8411866;28;20351;-69
2023/02/17 14:59:20;;;;;;;1.10;1.00;;;;;;;13.68;64.09;98371.34;8411963;28;20227;-69
2023/02/17 15:03:23;;;;;;;1.73;1.30;;;;;;;13.72;64.11;98386.81;8412099;28;20226;-69
2023/02/17 15:07:27;;;;;;;1.90;1.57;;;;;;;13.54;64.12;98368.63;8411236;28;20481;-68
2023/02/17 15:11:33;;;;;;;1.40;1.30;;;;;;;13.39;64.75;98398.00;8411592;28;20241;-69
2023/02/17 15:15:38;;;;;;;2.13;1.30;;;;;;;13.42;64.59;98398.69;8411681;28;20549;-69
2023/02/17 15:19:43;;;;;;;1.50;1.40;;;;;;;12.86;64.32;98277.44;8411639;28;20231;-70
2023/02/17 15:23:47;;;;;;;1.63;1.40;;;;;;;13.56;64.72;98392.78;8408481;28;20237;-69
2023/02/17 15:27:51;;;;;;;1.60;1.50;;;;;;;13.53;64.06;98389.50;8411072;28;20230;-69
2023/02/17 15:31:55;;;;;;;1.50;1.40;;;;;;;13.51;64.79;98410.38;8410942;28;20248;-68
2023/02/17 15:35:58;;;;;;;1.77;1.50;;;;;;;13.61;64.62;98419.44;8410939;28;20500;-68
2023/02/17 15:40:02;;;;;;;1.60;1.50;;;;;;;13.53;64.85;98418.13;8410891;28;20727;-69
2023/02/17 15:44:06;;;;;;;1.50;1.40;;;;;;;13.44;65.17;98409.84;8410858;28;20325;-70
2023/02/17 15:48:12;;;;;;;1.60;1.50;;;;;;;13.18;65.31;98386.84;8410674;28;20225;-69
2023/02/17 15:52:15;;;;;;;1.77;1.67;;;;;;;13.33;65.32;98417.34;8410289;28;20238;-69
2023/02/17 15:56:21;;;;;;;2.07;1.50;;;;;;;13.06;66.37;98416.84;8411006;28;20226;-69
2023/02/17 16:00:26;;;;;;;1.87;1.70;;;;;;;13.25;65.86;98422.88;8411285;28;20237;-69
2023/02/17 16:04:29;;;;;;;1.83;1.73;;;;;;;13.06;66.78;98433.31;8410898;28;20233;-68
2023/02/17 16:08:32;;;;;;;2.30;2.10;;;;;;;13.08;65.96;98423.69;8410555;28;20230;-69
2023/02/17 16:12:36;;;;;;;2.20;2.00;;;;;;;12.97;66.22;98410.34;8410537;28;20230;-69
2023/02/17 16:16:39;;;;;;;1.90;1.80;;;;;;;12.94;66.54;98420.88;8410598;28;20225;-69
2023/02/17 16:20:42;;;;;;;1.90;1.80;;;;;;;13.11;66.43;98425.28;8449943;28;20245;-69
2023/02/17 16:24:44;;;;;;;2.10;2.00;;;;;;;13.03;66.19;98417.00;8450736;28;20541;-69
2023/02/17 16:28:49;;;;;;;2.53;2.33;;;;;;;13.23;65.60;98416.03;8450509;28;20232;-69
2023/02/17 16:32:52;;;;;;;1.77;1.60;;;;;;;13.11;66.64;98420.09;8450163;28;20528;-68
2023/02/17 16:36:57;;;;;;;2.13;1.80;;;;;;;13.10;66.53;98421.84;8448371;28;20238;-68
2023/02/17 16:40:59;;;;;;;2.57;2.07;;;;;;;13.00;66.57;98407.56;8450279;28;20225;-68
2023/02/17 16:45:04;;;;;;;2.10;2.00;;;;;;;13.02;66.89;98418.78;8449910;28;20492;-69
2023/02/17 16:49:18;;;;;;;3.73;1.80;;;;;;;13.32;65.51;98423.44;8449833;28;20238;-68
2023/02/17 16:53:21;;;;;;;1.87;1.77;;;;;;;13.23;66.24;98421.25;8449459;28;20234;-68
2023/02/17 16:57:25;;;;;;;5.30;3.43;;;;;;;13.18;66.35;98433.66;8449119;28;20259;-68
2023/02/17 17:01:31;;;;;;;3.00;2.80;;;;;;;13.27;66.01;98438.41;8448952;28;20236;-67
2023/02/17 17:05:34;;;;;;;4.50;3.40;;;;;;;13.27;66.26;98441.03;8448435;28;20423;-69
2023/02/17 17:09:37;;;;;;;3.07;2.43;;;;;;;13.26;66.31;98431.53;8448737;28;20220;-67
2023/02/17 17:13:40;;;;;;;3.77;3.10;;;;;;;13.21;66.58;98430.88;8449064;28;20238;-69
2023/02/17 17:17:46;;;;;;;4.07;2.90;;;;;;;13.22;65.85;98404.81;8448457;28;20514;-68
2023/02/17 17:21:48;;;;;;;3.43;2.50;;;;;;;13.03;67.32;98420.44;8448708;28;20232;-68
2023/02/17 17:25:51;;;;;;;3.27;2.97;;;;;;;13.02;67.34;98436.09;8448348;28;20244;-67
2023/02/17 17:29:54;;;;;;;3.90;3.43;;;;;;;13.25;66.85;98433.28;8448130;28;20254;-68
2023/02/17 17:33:59;;;;;;;3.20;2.90;;;;;;;13.22;66.62;98445.59;8448275;28;20237;-68
2023/02/17 17:38:02;;;;;;;3.27;2.97;;;;;;;13.00;67.28;98435.34;8448243;28;20236;-68
2023/02/17 17:42:05;;;;;;;3.57;3.27;;;;;;;13.14;66.92;98437.31;8448332;28;20420;-67
2023/02/17 17:46:13;;;;;;;2.90;2.70;;;;;;;12.91;67.73;98467.81;8447902;28;20236;-67
2023/02/17 17:50:24;;;;;;;3.70;2.70;;;;;;;13.26;66.80;98460.13;8447857;28;20228;-68
2023/02/17 17:54:27;;;;;;;3.60;2.90;;;;;;;13.05;66.96;98446.38;8447476;28;20392;-67
2023/02/17 17:58:30;;;;;;;3.20;3.00;;;;;;;12.91;68.03;98452.22;8447581;28;20228;-68
2023/02/17 18:02:33;;;;;;;3.93;3.30;;;;;;;13.06;67.07;98451.50;8447284;28;20248;-69
2023/02/17 18:06:40;;;;;;;5.97;3.53;;;;;;;12.94;67.76;98466.84;8446986;28;20315;-68
2023/02/17 18:10:46;;;;;;;3.50;3.20;;;;;;;12.99;67.46;98460.50;8446734;28;20224;-67
2023/02/17 18:14:52;;;;;;;3.20;2.90;;;;;;;13.21;66.72;98481.16;8447192;28;20239;-69
2023/02/17 18:18:56;;;;;;;3.40;3.10;;;;;;;13.14;66.70;98479.75;8446844;28;20224;-68
2023/02/17 18:23:00;;;;;;;3.10;2.90;;;;;;;13.13;66.90;98474.63;8446682;28;20229;-70
2023/02/17 18:27:03;;;;;;;3.00;2.80;;;;;;;12.94;67.28;98474.63;8446645;28;20224;-69
2023/02/17 18:31:07;;;;;;;2.90;2.70;;;;;;;12.94;67.44;98472.88;8446358;28;20224;-69
2023/02/17 18:35:11;;;;;;;3.03;2.80;;;;;;;13.06;66.83;98481.84;8446157;28;20544;-69
2023/02/17 18:39:15;;;;;;;3.20;3.00;;;;;;;12.92;67.39;98469.50;8445613;28;20224;-68
2023/02/17 18:43:18;;;;;;;3.00;2.70;;;;;;;12.80;67.89;98470.06;8445741;28;20224;-68
2023/02/17 18:47:21;;;;;;;3.10;2.90;;;;;;;13.04;67.11;98479.34;8445308;28;20462;-68
2023/02/17 18:51:26;;;;;;;3.40;3.20;;;;;;;12.99;67.89;98483.91;8445948;28;20217;-68
2023/02/17 18:55:30;;;;;;;2.93;2.73;;;;;;;12.94;67.86;98505.81;8445829;28;20223;-70
2023/02/17 18:59:33;;;;;;;3.17;2.97;;;;;;;12.88;68.02;98501.75;8445306;28;20230;-68
2023/02/17 19:03:36;;;;;;;2.97;2.77;;;;;;;13.08;67.01;98501.69;8445262;28;20236;-68
2023/02/17 19:07:39;;;;;;;6.33;4.83;;;;;;;13.20;67.05;98496.84;8445391;28;20559;-67
2023/02/17 19:11:46;;;;;;;5.03;4.53;;;;;;;12.94;66.94;98498.84;8444475;28;20290;-69
2023/02/17 19:15:49;;;;;;;6.83;5.67;;;;;;;12.86;66.89;98477.56;8445214;28;20240;-69
2023/02/17 19:19:52;;;;;;;4.83;4.33;;;;;;;13.07;66.11;98494.78;8443845;28;20236;-69